createdAt,value
2022-07-28T00:01:48.041Z,62.25
2022-07-28T00:03:51.182Z,62.72
2022-07-28T00:05:54.292Z,63.90
2022-07-28T00:07:57.383Z,62.58
2022-07-28T00:10:01.056Z,63.27
2022-07-28T00:12:04.341Z,62.56
2022-07-28T00:14:08.779Z,64.12
2022-07-28T00:16:11.987Z,63.53
2022-07-28T00:18:15.052Z,62.92
2022-07-28T00:20:18.085Z,64.47
2022-07-28T00:22:21.301Z,64.02
2022-07-28T00:24:24.514Z,62.51
2022-07-28T00:26:27.548Z,63.13
2022-07-28T00:28:30.565Z,64.10
2022-07-28T00:30:34.962Z,63.62
2022-07-28T00:32:39.124Z,63.17
2022-07-28T00:34:42.223Z,62.14
2022-07-28T00:36:45.545Z,63.16
2022-07-28T00:38:48.882Z,63.24
2022-07-28T00:41:09.597Z,62.15
2022-07-28T00:43:13.040Z,63.31
2022-07-28T00:45:16.276Z,61.96
2022-07-28T00:47:21.154Z,62.91
2022-07-28T00:49:24.506Z,63.35
2022-07-28T00:51:28.292Z,63.34
2022-07-28T00:53:31.576Z,63.87
2022-07-28T00:55:34.686Z,63.58
2022-07-28T00:57:57.731Z,62.97
2022-07-28T01:00:00.728Z,63.15
2022-07-28T01:02:04.346Z,63.70
2022-07-28T01:04:08.998Z,65.49
2022-07-28T01:06:24.409Z,65.00
2022-07-28T01:08:31.244Z,65.38
2022-07-28T01:10:39.287Z,63.72
2022-07-28T01:12:52.154Z,64.77
2022-07-28T01:15:03.193Z,64.20
2022-07-28T01:17:10.929Z,64.34
2022-07-28T01:19:29.614Z,64.79
2022-07-28T01:21:35.521Z,64.68
2022-07-28T01:23:53.153Z,63.86
2022-07-28T01:26:09.979Z,64.16
2022-07-28T01:28:22.913Z,64.22
2022-07-28T01:30:31.500Z,64.62
2022-07-28T01:32:39.084Z,63.92
2022-07-28T01:34:47.261Z,64.10
2022-07-28T01:36:56.420Z,65.05
2022-07-28T01:39:00.195Z,63.63
2022-07-28T01:41:04.025Z,64.09
2022-07-28T01:43:09.051Z,64.32
2022-07-28T01:45:16.997Z,64.57
2022-07-28T01:47:23.061Z,65.01
2022-07-28T01:49:27.606Z,65.22
2022-07-28T01:51:32.040Z,65.66
2022-07-28T01:53:37.691Z,65.64
2022-07-28T01:55:44.333Z,65.07
2022-07-28T01:57:48.057Z,66.56
2022-07-28T01:59:52.229Z,66.61
2022-07-28T02:01:55.613Z,66.81
2022-07-28T02:04:01.594Z,66.63
2022-07-28T02:06:06.872Z,67.25
2022-07-28T02:08:10.939Z,66.97
2022-07-28T02:10:17.035Z,65.97
2022-07-28T02:12:20.532Z,66.79
2022-07-28T02:14:24.693Z,67.05
2022-07-28T02:16:28.777Z,65.79
2022-07-28T02:18:32.492Z,66.22
2022-07-28T02:20:37.433Z,65.76
2022-07-28T02:22:41.661Z,67.03
2022-07-28T02:24:45.150Z,66.87
2022-07-28T02:26:51.932Z,68.20
2022-07-28T02:28:56.407Z,67.71
2022-07-28T02:31:03.894Z,66.89
2022-07-28T02:33:12.507Z,68.58
2022-07-28T02:35:19.186Z,67.47
2022-07-28T02:37:25.975Z,68.17
2022-07-28T02:39:33.583Z,69.26
2022-07-28T02:41:40.452Z,69.21
2022-07-28T02:43:49.897Z,67.85
2022-07-28T02:45:57.012Z,69.38
2022-07-28T02:48:03.322Z,69.20
2022-07-28T02:50:07.530Z,68.60
2022-07-28T02:52:11.305Z,69.49
2022-07-28T02:54:16.211Z,69.41
2022-07-28T02:56:19.492Z,69.94
2022-07-28T02:58:24.445Z,69.80
2022-07-28T03:00:28.027Z,69.99
2022-07-28T03:02:33.492Z,70.35
2022-07-28T03:04:55.564Z,69.51
2022-07-28T03:06:58.674Z,70.17
2022-07-28T03:09:02.496Z,70.45
2022-07-28T03:11:09.679Z,70.83
2022-07-28T03:13:12.707Z,70.61
2022-07-28T03:15:15.905Z,70.58
2022-07-28T03:17:19.305Z,70.46
2022-07-28T03:19:22.364Z,71.09
2022-07-28T03:21:25.500Z,70.78
2022-07-28T03:23:33.156Z,71.18
2022-07-28T03:25:44.040Z,71.07
2022-07-28T03:27:51.239Z,70.71
2022-07-28T03:30:03.144Z,70.71
2022-07-28T03:32:07.927Z,72.11
2022-07-28T03:34:11.944Z,71.69
2022-07-28T03:36:18.648Z,71.93
2022-07-28T03:38:24.645Z,71.16
2022-07-28T03:40:29.972Z,71.95
2022-07-28T03:42:34.470Z,71.54
2022-07-28T03:44:39.634Z,71.73
2022-07-28T03:46:45.277Z,71.61
2022-07-28T03:48:48.457Z,72.20
2022-07-28T03:50:51.549Z,72.38
2022-07-28T03:52:55.334Z,71.26
2022-07-28T03:54:58.449Z,71.32
2022-07-28T03:57:01.457Z,71.33
2022-07-28T03:59:04.491Z,70.36
2022-07-28T04:01:09.208Z,70.53
2022-07-28T04:03:36.594Z,71.92
2022-07-28T04:05:35.276Z,71.22
2022-07-28T04:07:38.312Z,71.44
2022-07-28T04:09:41.482Z,70.97
2022-07-28T04:11:44.653Z,70.62
2022-07-28T04:13:47.689Z,70.58
2022-07-28T04:15:51.096Z,70.91
2022-07-28T04:17:56.588Z,70.81
2022-07-28T04:19:59.749Z,70.02
2022-07-28T04:22:02.850Z,70.38
2022-07-28T04:24:06.967Z,70.15
2022-07-28T04:26:10.154Z,70.20
2022-07-28T04:28:13.153Z,70.29
2022-07-28T04:30:18.131Z,70.02
2022-07-28T04:32:21.150Z,70.07
2022-07-28T04:34:25.540Z,71.21
2022-07-28T04:36:28.509Z,69.49
2022-07-28T04:38:31.509Z,70.33
2022-07-28T04:40:34.884Z,70.60
2022-07-28T04:42:39.709Z,70.52
2022-07-28T04:44:43.282Z,69.32
2022-07-28T04:46:46.326Z,69.72
2022-07-28T04:48:49.565Z,70.20
2022-07-28T04:50:54.049Z,70.40
2022-07-28T04:52:57.084Z,70.40
2022-07-28T04:55:00.172Z,70.34
2022-07-28T04:57:04.613Z,70.07
2022-07-28T04:59:13.535Z,68.51
2022-07-28T05:01:21.588Z,68.59
2022-07-28T05:03:24.806Z,68.81
2022-07-28T05:05:28.105Z,70.03
2022-07-28T05:07:32.491Z,68.73
2022-07-28T05:09:35.619Z,69.52
2022-07-28T05:11:38.676Z,69.70
2022-07-28T05:13:41.780Z,69.60
2022-07-28T05:15:44.792Z,68.65
2022-07-28T05:17:48.032Z,69.52
2022-07-28T05:19:51.350Z,68.76
2022-07-28T05:21:54.356Z,69.67
2022-07-28T05:23:58.879Z,68.96
2022-07-28T05:26:01.922Z,69.28
2022-07-28T05:28:05.341Z,68.62
2022-07-28T05:30:10.377Z,67.78
2022-07-28T05:32:17.310Z,69.02
2022-07-28T05:34:21.067Z,69.36
2022-07-28T05:36:24.246Z,68.87
2022-07-28T05:38:27.651Z,68.86
2022-07-28T05:40:32.061Z,68.63
2022-07-28T05:42:36.773Z,67.67
2022-07-28T05:44:39.801Z,68.62
2022-07-28T05:46:43.299Z,67.14
2022-07-28T05:48:47.227Z,66.38
2022-07-28T05:50:51.754Z,65.69
2022-07-28T05:52:55.002Z,66.85
2022-07-28T05:54:58.075Z,67.30
2022-07-28T05:57:02.545Z,65.99
2022-07-28T05:59:09.807Z,66.10
2022-07-28T06:01:12.872Z,65.53
2022-07-28T06:03:16.058Z,65.41
2022-07-28T06:05:20.625Z,64.91
2022-07-28T06:07:23.650Z,64.60
2022-07-28T06:09:46.793Z,63.33
2022-07-28T06:11:50.489Z,63.08
2022-07-28T06:13:57.532Z,63.94
2022-07-28T06:16:00.972Z,64.54
2022-07-28T06:18:04.002Z,63.75
2022-07-28T06:20:08.142Z,62.75
2022-07-28T06:22:11.329Z,62.76
2022-07-28T06:24:14.900Z,61.98
2022-07-28T06:26:18.306Z,62.26
2022-07-28T06:28:21.684Z,61.83
2022-07-28T06:30:26.338Z,61.99
2022-07-28T06:32:29.642Z,61.46
2022-07-28T06:34:32.927Z,61.75
2022-07-28T06:36:36.042Z,60.93
2022-07-28T06:38:39.114Z,60.29
2022-07-28T06:40:43.685Z,59.54
2022-07-28T06:42:47.704Z,59.51
2022-07-28T06:44:58.778Z,59.00
2022-07-28T06:47:04.268Z,58.59
2022-07-28T06:49:07.614Z,57.83
2022-07-28T06:51:10.785Z,57.50
2022-07-28T06:53:13.957Z,58.24
2022-07-28T06:55:17.063Z,57.70
2022-07-28T06:57:20.358Z,57.58
2022-07-28T06:59:23.493Z,57.48
2022-07-28T07:01:26.698Z,58.33
2022-07-28T07:03:31.139Z,56.50
2022-07-28T07:05:34.341Z,56.68
2022-07-28T07:07:41.147Z,57.48
2022-07-28T07:09:46.359Z,57.94
2022-07-28T07:11:49.650Z,57.45
2022-07-28T07:13:52.744Z,56.19
2022-07-28T07:15:55.939Z,56.03
2022-07-28T07:17:59.049Z,55.78
2022-07-28T07:20:03.521Z,55.97
2022-07-28T07:22:06.847Z,56.21
2022-07-28T07:24:11.557Z,56.40
2022-07-28T07:26:14.987Z,57.48
2022-07-28T07:28:18.118Z,56.01
2022-07-28T07:30:21.522Z,56.74
2022-07-28T07:32:24.691Z,55.48
2022-07-28T07:34:27.862Z,56.30
2022-07-28T07:36:32.617Z,55.91
2022-07-28T07:38:35.805Z,56.45
2022-07-28T07:40:39.196Z,55.61
2022-07-28T07:42:42.353Z,54.11
2022-07-28T07:44:49.995Z,55.39
2022-07-28T07:46:53.997Z,55.22
2022-07-28T07:48:57.239Z,56.29
2022-07-28T07:51:00.375Z,56.28
2022-07-28T07:53:05.444Z,56.73
2022-07-28T07:55:09.635Z,55.51
2022-07-28T07:57:12.740Z,56.05
2022-07-28T07:59:15.874Z,55.17
2022-07-28T08:01:19.442Z,54.97
2022-07-28T08:03:26.508Z,55.83
2022-07-28T08:05:34.927Z,55.15
2022-07-28T08:07:40.085Z,54.32
2022-07-28T08:09:44.515Z,54.65
2022-07-28T08:11:48.917Z,54.07
2022-07-28T08:13:52.107Z,54.75
2022-07-28T08:15:55.217Z,54.57
2022-07-28T08:18:00.201Z,55.51
2022-07-28T08:20:04.382Z,55.77
2022-07-28T08:22:07.496Z,53.69
2022-07-28T08:24:11.030Z,54.04
2022-07-28T08:26:22.207Z,54.05
2022-07-28T08:28:25.308Z,53.21
2022-07-28T08:30:32.415Z,53.61
2022-07-28T08:32:36.700Z,54.71
2022-07-28T08:34:39.855Z,54.23
2022-07-28T08:36:42.936Z,53.16
2022-07-28T08:38:46.057Z,53.43
2022-07-28T08:40:51.237Z,53.23
2022-07-28T08:42:59.857Z,53.55
2022-07-28T08:45:05.397Z,52.97
2022-07-28T08:47:11.310Z,52.87
2022-07-28T08:49:15.035Z,53.32
2022-07-28T08:51:18.244Z,52.58
2022-07-28T08:53:21.883Z,52.56
2022-07-28T08:55:32.099Z,53.23
2022-07-28T08:57:36.414Z,52.28
2022-07-28T08:59:41.332Z,53.02
2022-07-28T09:01:44.557Z,52.58
2022-07-28T09:03:47.831Z,52.94
2022-07-28T09:05:51.039Z,53.19
2022-07-28T09:07:55.934Z,52.31
2022-07-28T09:10:02.510Z,51.70
2022-07-28T09:12:07.161Z,51.78
2022-07-28T09:14:10.611Z,53.39
2022-07-28T09:16:16.108Z,52.98
2022-07-28T09:18:20.480Z,52.89
2022-07-28T09:20:25.024Z,53.17
2022-07-28T09:22:28.410Z,52.43
2022-07-28T09:24:35.784Z,53.22
2022-07-28T09:26:39.192Z,52.68
2022-07-28T09:28:50.108Z,53.42
2022-07-28T09:30:54.466Z,53.20
2022-07-28T09:33:41.801Z,53.20
2022-07-28T09:35:47.882Z,52.95
2022-07-28T09:38:00.492Z,53.12
2022-07-28T09:40:12.020Z,53.20
2022-07-28T09:42:15.419Z,53.27
2022-07-28T09:44:22.094Z,52.90
2022-07-28T09:46:29.379Z,52.06
2022-07-28T09:48:35.237Z,52.20
2022-07-28T09:50:38.817Z,52.48
2022-07-28T09:52:41.875Z,53.40
2022-07-28T09:55:01.299Z,52.93
2022-07-28T09:57:04.656Z,53.67
2022-07-28T09:59:08.547Z,53.48
2022-07-28T10:01:13.769Z,53.00
2022-07-28T10:03:25.813Z,53.42
2022-07-28T10:05:41.764Z,53.35
2022-07-28T10:07:50.111Z,53.41
2022-07-28T10:10:00.041Z,54.14
2022-07-28T10:12:16.934Z,54.30
2022-07-28T10:14:23.240Z,54.24
2022-07-28T10:16:30.091Z,52.73
2022-07-28T10:18:33.336Z,52.74
2022-07-28T10:20:38.306Z,53.05
2022-07-28T10:22:44.409Z,52.55
2022-07-28T10:24:50.074Z,53.18
2022-07-28T10:26:53.549Z,53.03
2022-07-28T10:28:57.542Z,52.41
2022-07-28T10:31:03.052Z,52.89
2022-07-28T10:33:10.145Z,53.59
2022-07-28T10:35:15.276Z,53.01
2022-07-28T10:37:20.231Z,52.99
2022-07-28T10:39:27.029Z,53.28
2022-07-28T10:41:35.454Z,53.88
2022-07-28T10:43:42.916Z,53.65
2022-07-28T10:46:05.110Z,53.65
2022-07-28T10:48:09.718Z,53.41
2022-07-28T10:50:14.619Z,53.46
2022-07-28T10:54:48.181Z,53.27
2022-07-28T10:56:53.206Z,53.34
2022-07-28T10:59:06.693Z,53.66
2022-07-28T11:01:17.122Z,53.73
2022-07-28T11:03:42.523Z,52.54
2022-07-28T11:05:47.231Z,52.80
2022-07-28T11:07:50.475Z,53.39
2022-07-28T11:09:54.940Z,53.78
2022-07-28T11:11:59.050Z,53.83
2022-07-28T11:14:32.146Z,52.82
2022-07-28T11:16:36.762Z,53.31
2022-07-28T11:19:07.981Z,53.17
2022-07-28T11:21:27.914Z,53.54
2022-07-28T11:23:55.958Z,51.01
2022-07-28T11:26:38.116Z,51.05
2022-07-28T11:29:10.934Z,51.25
2022-07-28T11:31:17.007Z,51.93
2022-07-28T11:33:21.396Z,52.32
2022-07-28T11:35:26.506Z,52.05
2022-07-28T11:37:29.657Z,51.60
2022-07-28T11:39:43.422Z,51.96
2022-07-28T11:41:48.282Z,51.17
2022-07-28T11:43:52.518Z,50.88
2022-07-28T11:46:25.799Z,51.48
2022-07-28T11:48:30.142Z,51.56
2022-07-28T11:50:33.270Z,52.16
2022-07-28T11:52:37.586Z,51.38
2022-07-28T11:54:41.718Z,51.28
2022-07-28T11:56:45.486Z,51.68
2022-07-28T11:58:57.357Z,51.76
2022-07-28T12:01:21.465Z,51.52
2022-07-28T12:03:49.696Z,52.09
2022-07-28T12:05:59.108Z,51.26
2022-07-28T12:08:02.983Z,51.73
2022-07-28T12:10:56.621Z,51.60
2022-07-28T12:13:01.693Z,51.86
2022-07-28T12:15:07.699Z,51.24
2022-07-28T12:17:11.034Z,50.89
2022-07-28T12:19:16.657Z,51.32
2022-07-28T12:21:36.698Z,50.81
2022-07-28T12:23:45.756Z,51.12
2022-07-28T12:25:52.598Z,50.56
2022-07-28T12:27:56.157Z,51.00
2022-07-28T12:29:59.993Z,51.30
2022-07-28T12:32:06.541Z,50.87
2022-07-28T12:34:11.495Z,51.47
2022-07-28T12:36:18.872Z,51.34
2022-07-28T12:38:22.946Z,50.15
2022-07-28T12:40:30.505Z,51.10
2022-07-28T12:42:33.611Z,50.88
2022-07-28T12:44:37.849Z,50.61
2022-07-28T12:46:48.698Z,50.98
2022-07-28T12:48:55.745Z,51.14
2022-07-28T12:50:59.667Z,51.61
2022-07-28T12:53:04.779Z,52.14
2022-07-28T12:55:30.635Z,50.34
2022-07-28T12:57:49.964Z,49.60
2022-07-28T12:59:53.784Z,49.82
2022-07-28T13:01:58.385Z,50.05
2022-07-28T13:04:03.113Z,50.30
2022-07-28T13:06:11.775Z,49.98
2022-07-28T13:08:14.878Z,50.59
2022-07-28T13:10:22.065Z,49.74
2022-07-28T13:12:26.452Z,49.93
2022-07-28T13:14:42.450Z,50.30
2022-07-28T13:16:58.376Z,49.90
2022-07-28T13:19:04.450Z,49.86
2022-07-28T13:21:07.849Z,49.38
2022-07-28T13:23:10.905Z,49.57
2022-07-28T13:25:14.696Z,49.97
2022-07-28T13:27:18.166Z,50.88
2022-07-28T13:29:22.359Z,50.02
2022-07-28T13:31:25.523Z,49.62
2022-07-28T13:33:28.784Z,49.60
2022-07-28T13:35:33.421Z,49.62
2022-07-28T13:37:37.198Z,50.04
2022-07-28T13:39:40.436Z,49.93
2022-07-28T13:41:56.643Z,49.69
2022-07-28T13:44:01.935Z,49.54
2022-07-28T13:46:05.384Z,48.97
2022-07-28T13:48:08.963Z,49.60
2022-07-28T13:50:12.241Z,48.72
2022-07-28T13:52:27.706Z,49.29
2022-07-28T13:54:36.533Z,48.93
2022-07-28T13:56:41.049Z,48.86
2022-07-28T13:58:44.210Z,49.55
2022-07-28T14:00:47.420Z,49.15
2022-07-28T14:02:52.214Z,49.16
2022-07-28T14:04:56.092Z,48.82
2022-07-28T14:06:59.518Z,49.23
2022-07-28T14:09:05.938Z,49.41
2022-07-28T14:11:09.470Z,49.31
2022-07-28T14:13:12.701Z,48.68
2022-07-28T14:15:15.782Z,49.54
2022-07-28T14:19:46.066Z,48.67
2022-07-28T14:21:51.833Z,49.39
2022-07-28T14:23:55.018Z,48.81
2022-07-28T14:26:25.284Z,49.12
2022-07-28T14:28:23.754Z,48.71
2022-07-28T14:30:28.332Z,48.34
2022-07-28T14:32:31.615Z,49.13
2022-07-28T14:34:34.965Z,49.38
2022-07-28T14:36:38.152Z,49.37
2022-07-28T14:38:56.740Z,49.21
2022-07-28T14:41:01.293Z,48.81
2022-07-28T14:43:05.029Z,49.14
2022-07-28T14:45:11.715Z,49.36
2022-07-28T14:47:15.519Z,49.37
2022-07-28T14:49:19.034Z,48.81
2022-07-28T14:51:26.849Z,48.78
2022-07-28T14:53:29.883Z,48.26
2022-07-28T14:55:33.133Z,47.69
2022-07-28T14:57:47.994Z,47.03
2022-07-28T14:59:51.823Z,47.27
2022-07-28T15:01:55.003Z,48.25
2022-07-28T15:03:58.354Z,47.57
2022-07-28T15:06:01.999Z,47.28
2022-07-28T15:08:05.596Z,47.38
2022-07-28T15:10:09.697Z,46.79
2022-07-28T15:12:12.715Z,46.85
2022-07-28T15:14:21.197Z,46.98
2022-07-28T15:16:25.235Z,46.76
2022-07-28T15:18:28.702Z,47.38
2022-07-28T15:20:32.443Z,46.14
2022-07-28T15:22:36.075Z,46.49
2022-07-28T15:24:41.485Z,46.18
2022-07-28T15:26:49.162Z,45.81
2022-07-28T15:28:52.397Z,46.36
2022-07-28T15:30:59.176Z,45.70
2022-07-28T15:33:02.796Z,47.18
2022-07-28T15:35:06.754Z,47.19
2022-07-28T15:37:10.011Z,47.67
2022-07-28T15:39:14.884Z,47.84
2022-07-28T15:41:18.325Z,47.81
2022-07-28T15:43:23.627Z,47.91
2022-07-28T15:45:27.694Z,46.47
2022-07-28T15:47:33.857Z,46.90
2022-07-28T15:49:36.976Z,46.89
2022-07-28T15:51:40.741Z,46.96
2022-07-28T15:53:46.090Z,46.57
2022-07-28T15:55:51.460Z,46.37
2022-07-28T15:57:55.711Z,46.93
2022-07-28T15:59:59.045Z,46.96
2022-07-28T16:02:02.797Z,46.55
2022-07-28T16:04:07.581Z,46.91
2022-07-28T16:06:10.738Z,47.34
2022-07-28T16:08:13.954Z,47.99
2022-07-28T16:10:17.234Z,47.11
2022-07-28T16:12:21.754Z,47.34
2022-07-28T16:14:25.220Z,47.46
2022-07-28T16:16:28.381Z,47.62
2022-07-28T16:18:32.164Z,48.13
2022-07-28T16:20:36.657Z,47.95
2022-07-28T16:22:40.812Z,47.97
2022-07-28T16:24:43.939Z,47.99
2022-07-28T16:26:47.048Z,48.39
2022-07-28T16:28:50.245Z,48.60
2022-07-28T16:30:53.929Z,48.12
2022-07-28T16:32:58.551Z,48.61
2022-07-28T16:35:01.784Z,48.08
2022-07-28T16:37:06.395Z,48.79
2022-07-28T16:39:09.780Z,48.52
2022-07-28T16:41:12.853Z,48.64
2022-07-28T16:43:19.546Z,48.32
2022-07-28T16:45:22.705Z,48.76
2022-07-28T16:47:25.823Z,48.54
2022-07-28T16:49:29.202Z,48.32
2022-07-28T16:51:32.351Z,48.86
2022-07-28T16:53:36.876Z,48.88
2022-07-28T16:55:41.707Z,49.05
2022-07-28T16:57:44.835Z,48.78
2022-07-28T16:59:49.269Z,48.55
2022-07-28T17:01:52.513Z,49.16
2022-07-28T17:03:55.763Z,48.35
2022-07-28T17:05:58.984Z,48.46
2022-07-28T17:08:04.820Z,48.75
2022-07-28T17:10:10.321Z,48.85
2022-07-28T17:12:13.399Z,48.84
2022-07-28T17:14:18.908Z,49.10
2022-07-28T17:16:22.139Z,48.78
2022-07-28T17:18:25.397Z,49.25
2022-07-28T17:20:28.604Z,49.09
2022-07-28T17:22:31.753Z,49.23
2022-07-28T17:24:34.985Z,48.34
2022-07-28T17:27:35.139Z,48.74
2022-07-28T17:29:02.533Z,49.03
2022-07-28T17:31:05.748Z,49.15
2022-07-28T17:33:09.130Z,49.42
2022-07-28T17:35:31.589Z,48.86
2022-07-28T17:37:35.427Z,48.46
2022-07-28T17:39:38.592Z,49.31
2022-07-28T17:41:43.209Z,49.78
2022-07-28T17:43:46.397Z,49.38
2022-07-28T17:45:49.823Z,50.10
2022-07-28T17:47:53.001Z,48.76
2022-07-28T17:49:56.381Z,49.64
2022-07-28T17:52:00.179Z,48.58
2022-07-28T17:54:03.257Z,49.44
2022-07-28T17:56:08.867Z,49.89
2022-07-28T17:58:19.101Z,49.61
2022-07-28T18:00:25.793Z,50.38
2022-07-28T18:02:28.944Z,50.39
2022-07-28T18:04:32.102Z,50.23
2022-07-28T18:06:36.798Z,49.80
2022-07-28T18:08:40.067Z,50.41
2022-07-28T18:10:43.154Z,49.93
2022-07-28T18:12:46.331Z,50.29
2022-07-28T18:14:50.876Z,50.01
2022-07-28T18:16:54.085Z,51.29
2022-07-28T18:18:57.286Z,50.47
2022-07-28T18:21:00.503Z,51.10
2022-07-28T18:23:03.536Z,50.94
2022-07-28T18:25:08.896Z,50.75
2022-07-28T18:27:12.471Z,50.87
2022-07-28T18:29:15.636Z,51.23
2022-07-28T18:31:21.763Z,51.17
2022-07-28T18:33:25.764Z,51.79
2022-07-28T18:35:29.663Z,50.68
2022-07-28T18:37:32.770Z,51.39
2022-07-28T18:39:35.853Z,51.92
2022-07-28T18:41:46.199Z,51.24
2022-07-28T18:43:50.640Z,52.18
2022-07-28T18:45:53.740Z,51.10
2022-07-28T18:47:59.653Z,51.60
2022-07-28T18:50:03.101Z,51.79
2022-07-28T18:52:07.072Z,52.62
2022-07-28T18:54:10.328Z,52.44
2022-07-28T18:56:13.646Z,52.21
2022-07-28T18:58:16.789Z,51.86
2022-07-28T19:00:21.297Z,53.13
2022-07-28T19:02:26.366Z,53.15
2022-07-28T19:04:31.279Z,52.88
2022-07-28T19:06:34.437Z,53.12
2022-07-28T19:08:37.652Z,52.77
2022-07-28T19:10:40.871Z,53.12
2022-07-28T19:12:44.179Z,52.94
2022-07-28T19:14:47.297Z,52.88
2022-07-28T19:16:50.448Z,52.66
2022-07-28T19:18:54.437Z,52.81
2022-07-28T19:20:59.236Z,53.52
2022-07-28T19:23:05.382Z,53.22
2022-07-28T19:25:09.635Z,53.86
2022-07-28T19:27:12.787Z,54.15
2022-07-28T19:29:15.805Z,54.42
2022-07-28T19:31:18.929Z,54.19
2022-07-28T19:33:22.103Z,54.05
2022-07-28T19:35:27.805Z,53.63
2022-07-28T19:37:32.411Z,53.62
2022-07-28T19:39:37.249Z,53.92
2022-07-28T19:41:40.506Z,53.93
2022-07-28T19:43:43.729Z,54.02
2022-07-28T19:45:46.936Z,53.85
2022-07-28T19:47:50.237Z,54.10
2022-07-28T19:49:53.325Z,54.46
2022-07-28T19:51:56.706Z,54.75
2022-07-28T19:54:01.283Z,54.13
2022-07-28T19:56:08.839Z,54.66
2022-07-28T19:58:12.607Z,54.50
2022-07-28T20:00:17.523Z,54.21
2022-07-28T20:02:21.105Z,53.87
2022-07-28T20:04:24.246Z,53.95
2022-07-28T20:06:27.354Z,54.17
2022-07-28T20:08:30.971Z,54.65
2022-07-28T20:10:35.544Z,54.54
2022-07-28T20:12:38.794Z,54.07
2022-07-28T20:14:41.938Z,53.55
2022-07-28T20:16:46.687Z,53.73
2022-07-28T20:18:50.087Z,53.54
2022-07-28T20:20:53.531Z,53.69
2022-07-28T20:22:57.039Z,54.17
2022-07-28T20:25:00.345Z,53.66
2022-07-28T20:27:06.509Z,53.50
2022-07-28T20:29:09.847Z,53.23
2022-07-28T20:31:16.829Z,53.54
2022-07-28T20:33:20.273Z,53.37
2022-07-28T20:35:23.405Z,53.70
2022-07-28T20:37:36.182Z,53.86
2022-07-28T20:39:45.228Z,53.85
2022-07-28T20:41:49.553Z,53.50
2022-07-28T20:44:18.433Z,54.09
2022-07-28T20:46:18.449Z,53.53
2022-07-28T20:48:21.645Z,53.98
2022-07-28T20:50:25.100Z,54.14
2022-07-28T20:52:28.244Z,54.21
2022-07-28T20:54:32.359Z,55.80
2022-07-28T20:56:35.382Z,56.86
2022-07-28T20:58:39.432Z,56.68
2022-07-28T21:00:44.106Z,57.75
2022-07-28T21:02:47.480Z,58.09
2022-07-28T21:04:51.048Z,59.57
2022-07-28T21:07:01.695Z,60.20
2022-07-28T21:09:07.431Z,60.89
2022-07-28T21:11:11.207Z,60.80
2022-07-28T21:13:14.960Z,60.63
2022-07-28T21:15:18.083Z,61.50
2022-07-28T21:17:22.601Z,61.67
2022-07-28T21:19:26.143Z,63.65
2022-07-28T21:21:29.460Z,63.52
2022-07-28T21:23:32.515Z,65.25
2022-07-28T21:25:35.721Z,65.64
2022-07-28T21:27:56.565Z,66.29
2022-07-28T21:32:05.832Z,68.14
2022-07-28T21:34:10.807Z,69.44
2022-07-28T21:36:14.130Z,70.37
2022-07-28T21:38:17.266Z,71.17
2022-07-28T21:40:20.638Z,72.08
2022-07-28T21:42:23.841Z,73.96
2022-07-28T21:44:26.933Z,75.19
2022-07-28T21:46:30.221Z,75.86
2022-07-28T21:48:33.465Z,76.73
2022-07-28T21:50:38.435Z,76.84
2022-07-28T21:52:41.653Z,77.82
2022-07-28T21:54:44.740Z,78.77
2022-07-28T21:56:48.411Z,78.89
2022-07-28T21:58:51.541Z,79.10
2022-07-28T22:00:58.161Z,78.23
2022-07-28T22:03:03.936Z,78.24
2022-07-28T22:05:07.662Z,78.45
2022-07-28T22:07:12.192Z,78.40
2022-07-28T22:09:15.326Z,78.63
2022-07-28T22:11:18.384Z,78.81
2022-07-28T22:13:21.531Z,80.15
2022-07-28T22:15:24.596Z,77.67
2022-07-28T22:17:27.657Z,76.72
2022-07-28T22:19:31.597Z,77.30
2022-07-28T22:21:34.583Z,78.35
2022-07-28T22:23:39.075Z,79.94
2022-07-28T22:25:42.349Z,79.31
2022-07-28T22:27:45.398Z,79.48
2022-07-28T22:29:50.117Z,79.29
2022-07-28T22:31:59.166Z,79.83
2022-07-28T22:34:02.514Z,78.34
2022-07-28T22:36:06.380Z,78.57
2022-07-28T22:38:09.649Z,78.11
2022-07-28T22:40:16.083Z,78.09
2022-07-28T22:42:19.253Z,77.78
2022-07-28T22:44:22.301Z,78.75
2022-07-28T22:46:25.567Z,79.85
2022-07-28T22:48:28.642Z,81.03
2022-07-28T22:50:31.991Z,80.71
2022-07-28T22:52:35.890Z,81.03
2022-07-28T22:54:39.841Z,81.04
2022-07-28T22:56:44.760Z,80.94
2022-07-28T22:58:47.896Z,80.86
2022-07-28T23:00:51.544Z,81.54
2022-07-28T23:02:54.854Z,82.51
2022-07-28T23:04:58.325Z,82.99
2022-07-28T23:07:01.343Z,83.56
2022-07-28T23:09:04.808Z,83.56
2022-07-28T23:11:07.807Z,84.23
2022-07-28T23:13:12.238Z,84.44
2022-07-28T23:15:15.295Z,84.34
2022-07-28T23:17:18.320Z,84.57
2022-07-28T23:19:21.588Z,85.03
2022-07-28T23:21:24.867Z,84.66
2022-07-28T23:23:27.955Z,84.35
2022-07-28T23:25:31.031Z,83.60
2022-07-28T23:27:34.090Z,83.94
2022-07-28T23:29:38.533Z,84.23
2022-07-28T23:31:42.570Z,84.01
2022-07-28T23:33:56.275Z,83.96
2022-07-28T23:36:00.471Z,84.41
2022-07-28T23:38:03.953Z,83.93
2022-07-28T23:40:08.347Z,84.68
2022-07-28T23:42:11.478Z,85.00
2022-07-28T23:44:15.043Z,84.98
2022-07-28T23:46:20.810Z,84.62
2022-07-28T23:48:23.924Z,85.29
2022-07-28T23:50:27.228Z,85.08
2022-07-28T23:52:30.288Z,84.92
2022-07-28T23:54:33.360Z,85.35
2022-07-28T23:56:36.364Z,86.52
2022-07-28T23:58:39.481Z,86.70
